sensor_id;sensor_type;location;lat;lon;timestamp;P1;P2;P0
36453;PMS5003;22478;51.740;-1.314;2022-09-24T00:01:07;341;341;
36453;PMS5003;22478;51.740;-1.314;2022-09-24T00:03:35;330;328;
36453;PMS5003;22478;51.740;-1.314;2022-09-24T00:06:03;314;314;
36453;PMS5003;22478;51.740;-1.314;2022-09-24T00:08:32;293;291;
36453;PMS5003;22478;51.740;-1.314;2022-09-24T00:11:00;231;231;
36453;PMS5003;22478;51.740;-1.314;2022-09-24T00:13:29;275;275;
36453;PMS5003;22478;51.740;-1.314;2022-09-24T00:16:00;276;276;
36453;PMS5003;22478;51.740;-1.314;2022-09-24T00:18:29;154;154;
36453;PMS5003;22478;51.740;-1.314;2022-09-24T00:20:56;174;173;
36453;PMS5003;22478;51.740;-1.314;2022-09-24T00:23:24;213;212;
36453;PMS5003;22478;51.740;-1.314;2022-09-24T00:25:51;274;272;
36453;PMS5003;22478;51.740;-1.314;2022-09-24T00:28:19;308;308;
36453;PMS5003;22478;51.740;-1.314;2022-09-24T00:30:45;357;357;
36453;PMS5003;22478;51.740;-1.314;2022-09-24T00:33:13;347;347;
36453;PMS5003;22478;51.740;-1.314;2022-09-24T00:35:40;341;341;
36453;PMS5003;22478;51.740;-1.314;2022-09-24T00:38:07;291;291;
36453;PMS5003;22478;51.740;-1.314;2022-09-24T00:40:35;304;304;
36453;PMS5003;22478;51.740;-1.314;2022-09-24T00:43:20;317;316;
36453;PMS5003;22478;51.740;-1.314;2022-09-24T00:45:49;322;322;
36453;PMS5003;22478;51.740;-1.314;2022-09-24T00:48:17;360;357;
36453;PMS5003;22478;51.740;-1.314;2022-09-24T00:50:45;370;369;
36453;PMS5003;22478;51.740;-1.314;2022-09-24T00:53:14;387;385;
36453;PMS5003;22478;51.740;-1.314;2022-09-24T00:55:45;403;403;
36453;PMS5003;22478;51.740;-1.314;2022-09-24T00:58:15;403;403;
36453;PMS5003;22478;51.740;-1.314;2022-09-24T01:00:43;410;409;
36453;PMS5003;22478;51.740;-1.314;2022-09-24T01:03:11;411;409;
36453;PMS5003;22478;51.740;-1.314;2022-09-24T01:05:42;411;411;
36453;PMS5003;22478;51.740;-1.314;2022-09-24T01:08:10;402;400;
36453;PMS5003;22478;51.740;-1.314;2022-09-24T01:10:46;402;402;
36453;PMS5003;22478;51.740;-1.314;2022-09-24T01:13:31;392;392;
36453;PMS5003;22478;51.740;-1.314;2022-09-24T01:16:04;386;386;
36453;PMS5003;22478;51.740;-1.314;2022-09-24T01:18:38;397;397;
36453;PMS5003;22478;51.740;-1.314;2022-09-24T01:21:19;389;389;
36453;PMS5003;22478;51.740;-1.314;2022-09-24T01:23:58;387;384;
36453;PMS5003;22478;51.740;-1.314;2022-09-24T01:26:41;381;379;
36453;PMS5003;22478;51.740;-1.314;2022-09-24T01:29:22;380;379;
36453;PMS5003;22478;51.740;-1.314;2022-09-24T01:31:55;386;383;
36453;PMS5003;22478;51.740;-1.314;2022-09-24T01:34:28;396;395;
36453;PMS5003;22478;51.740;-1.314;2022-09-24T01:37:00;329;328;
36453;PMS5003;22478;51.740;-1.314;2022-09-24T01:39:29;307;306;
36453;PMS5003;22478;51.740;-1.314;2022-09-24T01:41:59;320;320;
36453;PMS5003;22478;51.740;-1.314;2022-09-24T01:44:27;332;331;
36453;PMS5003;22478;51.740;-1.314;2022-09-24T01:46:54;304;303;
36453;PMS5003;22478;51.740;-1.314;2022-09-24T01:49:21;320;317;
36453;PMS5003;22478;51.740;-1.314;2022-09-24T01:51:49;335;332;
36453;PMS5003;22478;51.740;-1.314;2022-09-24T01:54:21;424;424;
36453;PMS5003;22478;51.740;-1.314;2022-09-24T01:56:54;342;342;
36453;PMS5003;22478;51.740;-1.314;2022-09-24T01:59:30;358;358;
36453;PMS5003;22478;51.740;-1.314;2022-09-24T02:02:03;359;359;
36453;PMS5003;22478;51.740;-1.314;2022-09-24T02:04:35;403;403;
36453;PMS5003;22478;51.740;-1.314;2022-09-24T02:07:09;362;362;
36453;PMS5003;22478;51.740;-1.314;2022-09-24T02:09:40;351;349;
36453;PMS5003;22478;51.740;-1.314;2022-09-24T02:12:09;378;377;
36453;PMS5003;22478;51.740;-1.314;2022-09-24T02:14:41;370;370;
36453;PMS5003;22478;51.740;-1.314;2022-09-24T02:17:13;381;381;
36453;PMS5003;22478;51.740;-1.314;2022-09-24T02:19:41;370;369;
36453;PMS5003;22478;51.740;-1.314;2022-09-24T02:22:10;371;370;
36453;PMS5003;22478;51.740;-1.314;2022-09-24T02:24:42;386;385;
36453;PMS5003;22478;51.740;-1.314;2022-09-24T02:27:11;410;410;
36453;PMS5003;22478;51.740;-1.314;2022-09-24T02:29:39;413;413;
36453;PMS5003;22478;51.740;-1.314;2022-09-24T02:32:07;430;428;
36453;PMS5003;22478;51.740;-1.314;2022-09-24T02:34:39;349;348;
36453;PMS5003;22478;51.740;-1.314;2022-09-24T02:37:11;345;343;
36453;PMS5003;22478;51.740;-1.314;2022-09-24T02:39:41;324;324;
36453;PMS5003;22478;51.740;-1.314;2022-09-24T02:42:08;332;330;
36453;PMS5003;22478;51.740;-1.314;2022-09-24T02:44:38;344;344;
36453;PMS5003;22478;51.740;-1.314;2022-09-24T02:47:05;330;328;
36453;PMS5003;22478;51.740;-1.314;2022-09-24T02:49:33;339;339;
36453;PMS5003;22478;51.740;-1.314;2022-09-24T02:52:00;348;347;
36453;PMS5003;22478;51.740;-1.314;2022-09-24T02:54:28;337;337;
36453;PMS5003;22478;51.740;-1.314;2022-09-24T02:56:56;309;309;
36453;PMS5003;22478;51.740;-1.314;2022-09-24T02:59:23;306;305;
36453;PMS5003;22478;51.740;-1.314;2022-09-24T03:01:51;336;333;
36453;PMS5003;22478;51.740;-1.314;2022-09-24T03:04:18;326;326;
36453;PMS5003;22478;51.740;-1.314;2022-09-24T03:06:45;329;329;
36453;PMS5003;22478;51.740;-1.314;2022-09-24T03:09:13;352;350;
36453;PMS5003;22478;51.740;-1.314;2022-09-24T03:11:40;344;344;
36453;PMS5003;22478;51.740;-1.314;2022-09-24T03:14:07;344;343;
36453;PMS5003;22478;51.740;-1.314;2022-09-24T03:16:35;326;324;
36453;PMS5003;22478;51.740;-1.314;2022-09-24T03:19:02;311;311;
36453;PMS5003;22478;51.740;-1.314;2022-09-24T03:21:30;328;328;
36453;PMS5003;22478;51.740;-1.314;2022-09-24T03:23:57;329;328;
36453;PMS5003;22478;51.740;-1.314;2022-09-24T03:26:24;326;326;
36453;PMS5003;22478;51.740;-1.314;2022-09-24T03:28:51;330;329;
36453;PMS5003;22478;51.740;-1.314;2022-09-24T03:31:18;333;332;
36453;PMS5003;22478;51.740;-1.314;2022-09-24T03:33:46;357;357;
36453;PMS5003;22478;51.740;-1.314;2022-09-24T03:36:14;333;333;
36453;PMS5003;22478;51.740;-1.314;2022-09-24T03:38:44;341;341;
36453;PMS5003;22478;51.740;-1.314;2022-09-24T03:41:12;326;326;
36453;PMS5003;22478;51.740;-1.314;2022-09-24T03:43:40;329;328;
36453;PMS5003;22478;51.740;-1.314;2022-09-24T03:46:08;337;337;
36453;PMS5003;22478;51.740;-1.314;2022-09-24T03:48:36;329;329;
36453;PMS5003;22478;51.740;-1.314;2022-09-24T03:51:06;322;322;
36453;PMS5003;22478;51.740;-1.314;2022-09-24T03:53:34;322;322;
36453;PMS5003;22478;51.740;-1.314;2022-09-24T03:56:01;328;324;
36453;PMS5003;22478;51.740;-1.314;2022-09-24T03:58:30;350;348;
36453;PMS5003;22478;51.740;-1.314;2022-09-24T04:00:58;327;327;
36453;PMS5003;22478;51.740;-1.314;2022-09-24T04:03:25;346;344;
36453;PMS5003;22478;51.740;-1.314;2022-09-24T04:05:52;381;381;
36453;PMS5003;22478;51.740;-1.314;2022-09-24T04:08:20;378;378;
36453;PMS5003;22478;51.740;-1.314;2022-09-24T04:10:48;373;373;
36453;PMS5003;22478;51.740;-1.314;2022-09-24T04:13:16;361;359;
36453;PMS5003;22478;51.740;-1.314;2022-09-24T04:15:44;340;340;
36453;PMS5003;22478;51.740;-1.314;2022-09-24T04:18:12;337;337;
36453;PMS5003;22478;51.740;-1.314;2022-09-24T04:20:39;351;351;
36453;PMS5003;22478;51.740;-1.314;2022-09-24T04:23:07;341;341;
36453;PMS5003;22478;51.740;-1.314;2022-09-24T04:25:35;354;354;
36453;PMS5003;22478;51.740;-1.314;2022-09-24T04:28:03;399;399;
36453;PMS5003;22478;51.740;-1.314;2022-09-24T04:30:32;383;383;
36453;PMS5003;22478;51.740;-1.314;2022-09-24T04:33:00;365;365;
36453;PMS5003;22478;51.740;-1.314;2022-09-24T04:35:29;359;359;
36453;PMS5003;22478;51.740;-1.314;2022-09-24T04:37:57;375;374;
36453;PMS5003;22478;51.740;-1.314;2022-09-24T04:40:25;344;344;
36453;PMS5003;22478;51.740;-1.314;2022-09-24T04:42:52;372;368;
36453;PMS5003;22478;51.740;-1.314;2022-09-24T04:45:20;356;352;
36453;PMS5003;22478;51.740;-1.314;2022-09-24T04:47:47;359;359;
36453;PMS5003;22478;51.740;-1.314;2022-09-24T04:50:15;388;385;
36453;PMS5003;22478;51.740;-1.314;2022-09-24T04:52:43;307;306;
36453;PMS5003;22478;51.740;-1.314;2022-09-24T04:55:10;299;294;
36453;PMS5003;22478;51.740;-1.314;2022-09-24T04:57:38;315;315;
36453;PMS5003;22478;51.740;-1.314;2022-09-24T05:00:07;322;318;
36453;PMS5003;22478;51.740;-1.314;2022-09-24T05:02:37;336;336;
36453;PMS5003;22478;51.740;-1.314;2022-09-24T05:05:04;298;296;
36453;PMS5003;22478;51.740;-1.314;2022-09-24T05:07:32;340;338;
36453;PMS5003;22478;51.740;-1.314;2022-09-24T05:09:59;385;384;
36453;PMS5003;22478;51.740;-1.314;2022-09-24T05:12:26;372;371;
36453;PMS5003;22478;51.740;-1.314;2022-09-24T05:14:54;332;331;
36453;PMS5003;22478;51.740;-1.314;2022-09-24T05:17:21;331;330;
36453;PMS5003;22478;51.740;-1.314;2022-09-24T05:19:48;320;320;
36453;PMS5003;22478;51.740;-1.314;2022-09-24T05:22:16;317;315;
36453;PMS5003;22478;51.740;-1.314;2022-09-24T05:24:42;338;335;
36453;PMS5003;22478;51.740;-1.314;2022-09-24T05:27:10;351;351;
36453;PMS5003;22478;51.740;-1.314;2022-09-24T05:29:37;374;374;
36453;PMS5003;22478;51.740;-1.314;2022-09-24T05:32:06;380;380;
36453;PMS5003;22478;51.740;-1.314;2022-09-24T05:34:35;369;369;
36453;PMS5003;22478;51.740;-1.314;2022-09-24T05:37:02;370;368;
36453;PMS5003;22478;51.740;-1.314;2022-09-24T05:39:30;358;356;
36453;PMS5003;22478;51.740;-1.314;2022-09-24T05:41:57;375;373;
36453;PMS5003;22478;51.740;-1.314;2022-09-24T05:44:24;378;374;
36453;PMS5003;22478;51.740;-1.314;2022-09-24T05:46:51;320;317;
36453;PMS5003;22478;51.740;-1.314;2022-09-24T05:49:18;365;365;
36453;PMS5003;22478;51.740;-1.314;2022-09-24T05:51:46;379;379;
36453;PMS5003;22478;51.740;-1.314;2022-09-24T05:54:14;382;379;
36453;PMS5003;22478;51.740;-1.314;2022-09-24T05:56:41;372;371;
36453;PMS5003;22478;51.740;-1.314;2022-09-24T05:59:08;378;376;
36453;PMS5003;22478;51.740;-1.314;2022-09-24T06:01:36;325;320;
36453;PMS5003;22478;51.740;-1.314;2022-09-24T06:04:03;337;334;
36453;PMS5003;22478;51.740;-1.314;2022-09-24T06:06:30;323;322;
36453;PMS5003;22478;51.740;-1.314;2022-09-24T06:08:57;316;314;
36453;PMS5003;22478;51.740;-1.314;2022-09-24T06:11:25;322;320;
36453;PMS5003;22478;51.740;-1.314;2022-09-24T06:13:52;336;334;
36453;PMS5003;22478;51.740;-1.314;2022-09-24T06:16:19;321;319;
36453;PMS5003;22478;51.740;-1.314;2022-09-24T06:18:47;338;333;
36453;PMS5003;22478;51.740;-1.314;2022-09-24T06:21:15;319;314;
36453;PMS5003;22478;51.740;-1.314;2022-09-24T06:23:42;329;325;
36453;PMS5003;22478;51.740;-1.314;2022-09-24T06:26:11;318;315;
36453;PMS5003;22478;51.740;-1.314;2022-09-24T06:28:39;326;322;
36453;PMS5003;22478;51.740;-1.314;2022-09-24T06:31:07;312;308;
36453;PMS5003;22478;51.740;-1.314;2022-09-24T06:33:34;318;315;
36453;PMS5003;22478;51.740;-1.314;2022-09-24T06:36:02;357;354;
36453;PMS5003;22478;51.740;-1.314;2022-09-24T06:38:30;347;345;
36453;PMS5003;22478;51.740;-1.314;2022-09-24T06:40:58;369;362;
36453;PMS5003;22478;51.740;-1.314;2022-09-24T06:43:26;419;419;
36453;PMS5003;22478;51.740;-1.314;2022-09-24T06:45:53;399;393;
36453;PMS5003;22478;51.740;-1.314;2022-09-24T06:48:21;349;347;
36453;PMS5003;22478;51.740;-1.314;2022-09-24T06:50:49;341;338;
36453;PMS5003;22478;51.740;-1.314;2022-09-24T06:53:16;346;342;
36453;PMS5003;22478;51.740;-1.314;2022-09-24T06:55:44;343;341;
36453;PMS5003;22478;51.740;-1.314;2022-09-24T06:58:12;384;378;
36453;PMS5003;22478;51.740;-1.314;2022-09-24T07:00:41;348;345;
36453;PMS5003;22478;51.740;-1.314;2022-09-24T07:03:09;342;338;
36453;PMS5003;22478;51.740;-1.314;2022-09-24T07:05:40;324;323;
36453;PMS5003;22478;51.740;-1.314;2022-09-24T07:08:07;374;373;
36453;PMS5003;22478;51.740;-1.314;2022-09-24T07:10:34;352;345;
36453;PMS5003;22478;51.740;-1.314;2022-09-24T07:13:02;370;369;
36453;PMS5003;22478;51.740;-1.314;2022-09-24T07:15:29;361;359;
36453;PMS5003;22478;51.740;-1.314;2022-09-24T07:17:56;373;371;
36453;PMS5003;22478;51.740;-1.314;2022-09-24T07:20:24;374;374;
36453;PMS5003;22478;51.740;-1.314;2022-09-24T07:22:51;365;363;
36453;PMS5003;22478;51.740;-1.314;2022-09-24T07:25:18;352;350;
36453;PMS5003;22478;51.740;-1.314;2022-09-24T07:27:45;353;350;
36453;PMS5003;22478;51.740;-1.314;2022-09-24T07:30:13;351;348;
36453;PMS5003;22478;51.740;-1.314;2022-09-24T07:32:40;380;379;
36453;PMS5003;22478;51.740;-1.314;2022-09-24T07:35:07;363;362;
36453;PMS5003;22478;51.740;-1.314;2022-09-24T07:37:35;376;375;
36453;PMS5003;22478;51.740;-1.314;2022-09-24T07:40:02;372;372;
36453;PMS5003;22478;51.740;-1.314;2022-09-24T07:42:29;400;400;
36453;PMS5003;22478;51.740;-1.314;2022-09-24T07:44:56;417;416;
36453;PMS5003;22478;51.740;-1.314;2022-09-24T07:47:23;339;339;
36453;PMS5003;22478;51.740;-1.314;2022-09-24T07:49:51;370;370;
36453;PMS5003;22478;51.740;-1.314;2022-09-24T07:52:17;370;367;
36453;PMS5003;22478;51.740;-1.314;2022-09-24T07:54:45;380;380;
36453;PMS5003;22478;51.740;-1.314;2022-09-24T07:57:12;355;353;
36453;PMS5003;22478;51.740;-1.314;2022-09-24T07:59:39;299;296;
36453;PMS5003;22478;51.740;-1.314;2022-09-24T08:02:08;350;349;
36453;PMS5003;22478;51.740;-1.314;2022-09-24T08:04:41;383;383;
36453;PMS5003;22478;51.740;-1.314;2022-09-24T08:07:08;311;310;
36453;PMS5003;22478;51.740;-1.314;2022-09-24T08:09:37;288;288;
36453;PMS5003;22478;51.740;-1.314;2022-09-24T08:12:04;344;344;
36453;PMS5003;22478;51.740;-1.314;2022-09-24T08:14:32;334;334;
36453;PMS5003;22478;51.740;-1.314;2022-09-24T08:17:00;250;249;
36453;PMS5003;22478;51.740;-1.314;2022-09-24T08:19:27;246;246;
36453;PMS5003;22478;51.740;-1.314;2022-09-24T08:21:54;262;261;
36453;PMS5003;22478;51.740;-1.314;2022-09-24T08:24:21;303;303;
36453;PMS5003;22478;51.740;-1.314;2022-09-24T08:26:48;334;334;
36453;PMS5003;22478;51.740;-1.314;2022-09-24T08:29:15;392;392;
36453;PMS5003;22478;51.740;-1.314;2022-09-24T08:31:42;341;341;
36453;PMS5003;22478;51.740;-1.314;2022-09-24T08:34:10;408;403;
36453;PMS5003;22478;51.740;-1.314;2022-09-24T08:36:37;426;425;
36453;PMS5003;22478;51.740;-1.314;2022-09-24T08:39:05;541;541;
36453;PMS5003;22478;51.740;-1.314;2022-09-24T08:41:36;366;364;
36453;PMS5003;22478;51.740;-1.314;2022-09-24T08:44:14;585;585;
36453;PMS5003;22478;51.740;-1.314;2022-09-24T08:46:48;373;372;
36453;PMS5003;22478;51.740;-1.314;2022-09-24T08:49:19;364;364;
36453;PMS5003;22478;51.740;-1.314;2022-09-24T08:51:55;371;371;
36453;PMS5003;22478;51.740;-1.314;2022-09-24T08:54:29;547;545;
36453;PMS5003;22478;51.740;-1.314;2022-09-24T08:57:01;492;491;
36453;PMS5003;22478;51.740;-1.314;2022-09-24T08:59:36;591;589;
36453;PMS5003;22478;51.740;-1.314;2022-09-24T09:02:14;640;637;
36453;PMS5003;22478;51.740;-1.314;2022-09-24T09:04:52;619;619;
36453;PMS5003;22478;51.740;-1.314;2022-09-24T09:07:26;516;516;
36453;PMS5003;22478;51.740;-1.314;2022-09-24T09:09:58;568;568;
36453;PMS5003;22478;51.740;-1.314;2022-09-24T09:12:29;587;587;
36453;PMS5003;22478;51.740;-1.314;2022-09-24T09:15:02;490;489;
36453;PMS5003;22478;51.740;-1.314;2022-09-24T09:17:36;417;415;
36453;PMS5003;22478;51.740;-1.314;2022-09-24T09:20:10;407;407;
36453;PMS5003;22478;51.740;-1.314;2022-09-24T09:22:43;380;378;
36453;PMS5003;22478;51.740;-1.314;2022-09-24T09:25:16;402;401;
36453;PMS5003;22478;51.740;-1.314;2022-09-24T09:27:50;409;409;
36453;PMS5003;22478;51.740;-1.314;2022-09-24T09:30:22;437;437;
36453;PMS5003;22478;51.740;-1.314;2022-09-24T09:32:55;452;452;
36453;PMS5003;22478;51.740;-1.314;2022-09-24T09:35:37;466;463;
36453;PMS5003;22478;51.740;-1.314;2022-09-24T09:38:13;478;478;
36453;PMS5003;22478;51.740;-1.314;2022-09-24T09:40:50;396;395;
36453;PMS5003;22478;51.740;-1.314;2022-09-24T09:43:23;232;232;
36453;PMS5003;22478;51.740;-1.314;2022-09-24T09:45:54;219;219;
36453;PMS5003;22478;51.740;-1.314;2022-09-24T09:48:27;319;316;
36453;PMS5003;22478;51.740;-1.314;2022-09-24T09:51:03;387;386;
36453;PMS5003;22478;51.740;-1.314;2022-09-24T09:53:32;178;177;
36453;PMS5003;22478;51.740;-1.314;2022-09-24T09:55:59;224;224;
36453;PMS5003;22478;51.740;-1.314;2022-09-24T09:58:29;243;242;
36453;PMS5003;22478;51.740;-1.314;2022-09-24T10:01:05;221;219;
36453;PMS5003;22478;51.740;-1.314;2022-09-24T10:03:45;211;211;
36453;PMS5003;22478;51.740;-1.314;2022-09-24T10:06:14;183;183;
36453;PMS5003;22478;51.740;-1.314;2022-09-24T10:08:49;172;167;
36453;PMS5003;22478;51.740;-1.314;2022-09-24T10:11:17;73;60;
36453;PMS5003;22478;51.740;-1.314;2022-09-24T10:13:44;59;47;
36453;PMS5003;22478;51.740;-1.314;2022-09-24T10:16:12;73;67;
36453;PMS5003;22478;51.740;-1.314;2022-09-24T10:18:41;80;65;
36453;PMS5003;22478;51.740;-1.314;2022-09-24T10:21:12;78;74;
36453;PMS5003;22478;51.740;-1.314;2022-09-24T10:23:49;61;57;
36453;PMS5003;22478;51.740;-1.314;2022-09-24T10:26:16;84;74;
36453;PMS5003;22478;51.740;-1.314;2022-09-24T10:28:44;151;148;
36453;PMS5003;22478;51.740;-1.314;2022-09-24T10:31:15;189;189;
36453;PMS5003;22478;51.740;-1.314;2022-09-24T10:33:46;114;105;
36453;PMS5003;22478;51.740;-1.314;2022-09-24T10:36:18;123;111;
36453;PMS5003;22478;51.740;-1.314;2022-09-24T10:38:47;101;92;
36453;PMS5003;22478;51.740;-1.314;2022-09-24T10:41:18;253;253;
36453;PMS5003;22478;51.740;-1.314;2022-09-24T10:43:51;256;256;
36453;PMS5003;22478;51.740;-1.314;2022-09-24T10:46:25;209;208;
36453;PMS5003;22478;51.740;-1.314;2022-09-24T10:49:08;214;214;
36453;PMS5003;22478;51.740;-1.314;2022-09-24T10:51:49;169;168;
36453;PMS5003;22478;51.740;-1.314;2022-09-24T10:54:29;194;191;
36453;PMS5003;22478;51.740;-1.314;2022-09-24T10:57:09;197;197;
36453;PMS5003;22478;51.740;-1.314;2022-09-24T10:59:45;126;112;
36453;PMS5003;22478;51.740;-1.314;2022-09-24T11:02:26;158;155;
36453;PMS5003;22478;51.740;-1.314;2022-09-24T11:05:22;60;46;
36453;PMS5003;22478;51.740;-1.314;2022-09-24T11:07:53;43;33;
36453;PMS5003;22478;51.740;-1.314;2022-09-24T11:10:31;68;53;
36453;PMS5003;22478;51.740;-1.314;2022-09-24T11:13:16;19;19;
36453;PMS5003;22478;51.740;-1.314;2022-09-24T11:16:02;13;13;
36453;PMS5003;22478;51.740;-1.314;2022-09-24T11:19:19;97;93;
36453;PMS5003;22478;51.740;-1.314;2022-09-24T11:22:02;243;243;
36453;PMS5003;22478;51.740;-1.314;2022-09-24T11:24:40;267;267;
36453;PMS5003;22478;51.740;-1.314;2022-09-24T11:27:25;275;275;
36453;PMS5003;22478;51.740;-1.314;2022-09-24T11:30:08;291;291;
36453;PMS5003;22478;51.740;-1.314;2022-09-24T11:32:42;269;269;
36453;PMS5003;22478;51.740;-1.314;2022-09-24T11:35:33;252;252;
36453;PMS5003;22478;51.740;-1.314;2022-09-24T11:38:19;236;236;
36453;PMS5003;22478;51.740;-1.314;2022-09-24T11:41:01;234;234;
36453;PMS5003;22478;51.740;-1.314;2022-09-24T11:43:42;249;246;
36453;PMS5003;22478;51.740;-1.314;2022-09-24T11:46:27;242;242;
36453;PMS5003;22478;51.740;-1.314;2022-09-24T11:49:10;236;234;
36453;PMS5003;22478;51.740;-1.314;2022-09-24T11:51:52;218;218;
36453;PMS5003;22478;51.740;-1.314;2022-09-24T11:54:23;211;210;
36453;PMS5003;22478;51.740;-1.314;2022-09-24T11:56:57;190;185;
36453;PMS5003;22478;51.740;-1.314;2022-09-24T11:59:32;227;227;
36453;PMS5003;22478;51.740;-1.314;2022-09-24T12:02:09;211;211;
36453;PMS5003;22478;51.740;-1.314;2022-09-24T12:04:46;215;213;
36453;PMS5003;22478;51.740;-1.314;2022-09-24T12:07:22;237;237;
36453;PMS5003;22478;51.740;-1.314;2022-09-24T12:09:56;217;216;
36453;PMS5003;22478;51.740;-1.314;2022-09-24T12:12:29;186;184;
36453;PMS5003;22478;51.740;-1.314;2022-09-24T12:15:01;165;159;
36453;PMS5003;22478;51.740;-1.314;2022-09-24T12:17:35;215;215;
36453;PMS5003;22478;51.740;-1.314;2022-09-24T12:20:10;169;160;
36453;PMS5003;22478;51.740;-1.314;2022-09-24T12:22:43;155;143;
36453;PMS5003;22478;51.740;-1.314;2022-09-24T12:25:13;227;227;
36453;PMS5003;22478;51.740;-1.314;2022-09-24T12:27:42;69;63;
36453;PMS5003;22478;51.740;-1.314;2022-09-24T12:30:16;76;72;
36453;PMS5003;22478;51.740;-1.314;2022-09-24T12:32:55;92;92;
36453;PMS5003;22478;51.740;-1.314;2022-09-24T12:35:31;85;85;
36453;PMS5003;22478;51.740;-1.314;2022-09-24T12:38:09;74;73;
36453;PMS5003;22478;51.740;-1.314;2022-09-24T12:40:49;103;96;
36453;PMS5003;22478;51.740;-1.314;2022-09-24T12:43:33;91;82;
36453;PMS5003;22478;51.740;-1.314;2022-09-24T12:46:11;59;52;
36453;PMS5003;22478;51.740;-1.314;2022-09-24T12:48:43;117;101;
36453;PMS5003;22478;51.740;-1.314;2022-09-24T12:51:12;147;136;
36453;PMS5003;22478;51.740;-1.314;2022-09-24T12:53:41;243;243;
36453;PMS5003;22478;51.740;-1.314;2022-09-24T12:56:21;305;304;
36453;PMS5003;22478;51.740;-1.314;2022-09-24T12:58:51;330;328;
36453;PMS5003;22478;51.740;-1.314;2022-09-24T13:01:25;255;254;
36453;PMS5003;22478;51.740;-1.314;2022-09-24T13:04:03;240;240;
36453;PMS5003;22478;51.740;-1.314;2022-09-24T13:06:50;282;282;
36453;PMS5003;22478;51.740;-1.314;2022-09-24T13:09:23;330;330;
36453;PMS5003;22478;51.740;-1.314;2022-09-24T13:12:01;218;218;
36453;PMS5003;22478;51.740;-1.314;2022-09-24T13:14:32;296;296;
36453;PMS5003;22478;51.740;-1.314;2022-09-24T13:17:03;339;339;
36453;PMS5003;22478;51.740;-1.314;2022-09-24T13:19:34;353;352;
36453;PMS5003;22478;51.740;-1.314;2022-09-24T13:22:05;309;307;
36453;PMS5003;22478;51.740;-1.314;2022-09-24T13:24:47;287;287;
36453;PMS5003;22478;51.740;-1.314;2022-09-24T13:27:19;313;313;
36453;PMS5003;22478;51.740;-1.314;2022-09-24T13:29:52;352;352;
36453;PMS5003;22478;51.740;-1.314;2022-09-24T13:32:30;297;297;
36453;PMS5003;22478;51.740;-1.314;2022-09-24T13:35:04;260;259;
36453;PMS5003;22478;51.740;-1.314;2022-09-24T13:37:38;248;247;
36453;PMS5003;22478;51.740;-1.314;2022-09-24T13:40:14;239;239;
36453;PMS5003;22478;51.740;-1.314;2022-09-24T13:42:45;242;242;
36453;PMS5003;22478;51.740;-1.314;2022-09-24T13:45:18;216;214;
36453;PMS5003;22478;51.740;-1.314;2022-09-24T13:47:49;229;229;
36453;PMS5003;22478;51.740;-1.314;2022-09-24T13:50:21;184;183;
36453;PMS5003;22478;51.740;-1.314;2022-09-24T13:52:51;193;193;
36453;PMS5003;22478;51.740;-1.314;2022-09-24T13:55:23;163;163;
36453;PMS5003;22478;51.740;-1.314;2022-09-24T13:57:55;182;181;
36453;PMS5003;22478;51.740;-1.314;2022-09-24T14:00:23;143;143;
36453;PMS5003;22478;51.740;-1.314;2022-09-24T14:02:54;144;144;
36453;PMS5003;22478;51.740;-1.314;2022-09-24T14:05:26;144;144;
36453;PMS5003;22478;51.740;-1.314;2022-09-24T14:07:55;140;140;
36453;PMS5003;22478;51.740;-1.314;2022-09-24T14:10:26;148;148;
36453;PMS5003;22478;51.740;-1.314;2022-09-24T14:13:06;79;79;
36453;PMS5003;22478;51.740;-1.314;2022-09-24T14:15:48;77;77;
36453;PMS5003;22478;51.740;-1.314;2022-09-24T14:18:18;60;60;
36453;PMS5003;22478;51.740;-1.314;2022-09-24T14:20:46;84;82;
36453;PMS5003;22478;51.740;-1.314;2022-09-24T14:23:20;75;72;
36453;PMS5003;22478;51.740;-1.314;2022-09-24T14:25:52;94;94;
36453;PMS5003;22478;51.740;-1.314;2022-09-24T14:28:20;108;107;
36453;PMS5003;22478;51.740;-1.314;2022-09-24T14:30:49;57;57;
36453;PMS5003;22478;51.740;-1.314;2022-09-24T14:33:19;68;68;
36453;PMS5003;22478;51.740;-1.314;2022-09-24T14:35:49;86;85;
36453;PMS5003;22478;51.740;-1.314;2022-09-24T14:38:20;75;75;
36453;PMS5003;22478;51.740;-1.314;2022-09-24T14:40:51;89;89;
36453;PMS5003;22478;51.740;-1.314;2022-09-24T14:43:22;109;109;
36453;PMS5003;22478;51.740;-1.314;2022-09-24T14:45:52;122;121;
36453;PMS5003;22478;51.740;-1.314;2022-09-24T14:48:28;107;107;
36453;PMS5003;22478;51.740;-1.314;2022-09-24T14:50:57;188;188;
36453;PMS5003;22478;51.740;-1.314;2022-09-24T14:53:26;155;153;
36453;PMS5003;22478;51.740;-1.314;2022-09-24T14:55:55;159;159;
36453;PMS5003;22478;51.740;-1.314;2022-09-24T14:58:24;171;171;
36453;PMS5003;22478;51.740;-1.314;2022-09-24T15:00:59;186;186;
36453;PMS5003;22478;51.740;-1.314;2022-09-24T15:03:31;200;200;
36453;PMS5003;22478;51.740;-1.314;2022-09-24T15:06:06;237;237;
36453;PMS5003;22478;51.740;-1.314;2022-09-24T15:08:50;228;228;
36453;PMS5003;22478;51.740;-1.314;2022-09-24T15:11:20;265;265;
36453;PMS5003;22478;51.740;-1.314;2022-09-24T15:13:56;300;300;
36453;PMS5003;22478;51.740;-1.314;2022-09-24T15:16:27;297;297;
36453;PMS5003;22478;51.740;-1.314;2022-09-24T15:18:57;305;305;
36453;PMS5003;22478;51.740;-1.314;2022-09-24T15:21:37;277;276;
36453;PMS5003;22478;51.740;-1.314;2022-09-24T15:24:05;234;232;
36453;PMS5003;22478;51.740;-1.314;2022-09-24T15:26:32;226;226;
36453;PMS5003;22478;51.740;-1.314;2022-09-24T15:29:01;249;249;
36453;PMS5003;22478;51.740;-1.314;2022-09-24T15:31:29;314;314;
36453;PMS5003;22478;51.740;-1.314;2022-09-24T15:33:56;364;364;
36453;PMS5003;22478;51.740;-1.314;2022-09-24T15:36:23;404;404;
36453;PMS5003;22478;51.740;-1.314;2022-09-24T15:38:50;418;418;
36453;PMS5003;22478;51.740;-1.314;2022-09-24T15:41:23;411;411;
36453;PMS5003;22478;51.740;-1.314;2022-09-24T15:43:52;409;408;
36453;PMS5003;22478;51.740;-1.314;2022-09-24T15:46:22;389;389;
36453;PMS5003;22478;51.740;-1.314;2022-09-24T15:48:49;393;393;
36453;PMS5003;22478;51.740;-1.314;2022-09-24T15:51:17;347;347;
36453;PMS5003;22478;51.740;-1.314;2022-09-24T15:53:47;314;314;
36453;PMS5003;22478;51.740;-1.314;2022-09-24T15:56:15;316;316;
36453;PMS5003;22478;51.740;-1.314;2022-09-24T15:58:42;296;296;